ADDS METAR Data INFO
IDs: Format: Raw Decoded Include TAF

Data at: 0732 UTC 18 Oct 2017

KIKK 180715Z AUTO 18003KT 10SM CLR 08/04 A3019 RMK AO2 T00760040
KIKK 180655Z AUTO 19004KT 10SM CLR 08/04 A3019 RMK AO2 T00810041
KIKK 180635Z AUTO 19005KT 10SM CLR 08/04 A3019 RMK AO2 T00810043
KIKK 180615Z AUTO 19005KT 10SM CLR 09/04 A3019 RMK AO2 T00850043
KIKK 180555Z AUTO 19005KT 10SM CLR 08/04 A3019 RMK AO2 T00810041 10152 20081 402130055
KIKK 180535Z AUTO 20004KT 10SM CLR 09/04 A3020 RMK AO2 T00850041
KIKK 180515Z AUTO 20004KT 10SM CLR 09/04 A3020 RMK AO2 T00910043
KIKK 180455Z AUTO 20005KT 10SM CLR 09/04 A3020 RMK AO2 T00920042
KIKK 180435Z AUTO 20003KT 10SM CLR 10/04 A3020 RMK AO2 T00960042
KIKK 180415Z AUTO 20005KT 10SM CLR 10/04 A3020 RMK AO2 T00990041
KIKK 180355Z AUTO 20006KT 10SM CLR 10/04 A3020 RMK AO2 T01000042
KIKK 180335Z AUTO 20005KT 10SM CLR 10/04 A3020 RMK AO2 T01020042
KIKK 180315Z AUTO 19005KT 10SM CLR 10/04 A3020 RMK AO2 T01020042
KIKK 180255Z AUTO 20005KT 10SM CLR 11/04 A3020 RMK AO2 T01090041
KIKK 180235Z AUTO 20005KT 10SM CLR 12/04 A3020 RMK AO2 T01150041
KIKK 180215Z AUTO 20006KT 10SM CLR 12/04 A3020 RMK AO2 T01190040
KIKK 180155Z AUTO 20007KT 10SM CLR 12/04 A3020 RMK AO2 T01220041
KIKK 180135Z AUTO 20009KT 10SM CLR 13/04 A3019 RMK AO2 T01270041
KIKK 180115Z AUTO 20007KT 10SM CLR 13/04 A3019 RMK AO2 T01320041
KIKK 180055Z AUTO 20007KT 10SM CLR 14/04 A3019 RMK AO2 T01370041
KIKK 180035Z AUTO 20008KT 10SM CLR 14/04 A3019 RMK AO2 T01420042
KIKK 180015Z AUTO 20007KT 10SM CLR 15/04 A3019 RMK AO2 T01480042
KIKK 172355Z AUTO 20005KT 10SM CLR 15/04 A3018 RMK AO2 T01470044 10213 20147
KIKK 172335Z AUTO 21004KT 10SM CLR 16/04 A3018 RMK AO2 T01580042
KIKK 172315Z AUTO 21006KT 10SM CLR 17/04 A3017 RMK AO2 T01720041
KIKK 172255Z AUTO 21006KT 10SM CLR 18/04 A3017 RMK AO2 T01820038
KIKK 172235Z AUTO 21009KT 10SM CLR 19/04 A3017 RMK AO2 T01900036
KIKK 172215Z AUTO 21010KT 10SM CLR 20/04 A3017 RMK AO2 T01960035
KIKK 172155Z AUTO 21010G17KT 10SM CLR 20/04 A3017 RMK AO2 T02010036
KIKK 172135Z AUTO 21012G16KT 10SM CLR 21/04 A3017 RMK AO2 T02050036
KIKK 172115Z AUTO 23012G15KT 10SM CLR 21/04 A3017 RMK AO2 T02070036
KIKK 172055Z AUTO 23014G18KT 10SM CLR 21/04 A3017 RMK AO2 T02080035
KIKK 172035Z AUTO 21011G18KT 10SM CLR 21/04 A3018 RMK AO2 T02080038
KIKK 172015Z AUTO 23013KT 10SM CLR 21/04 A3018 RMK AO2 T02080035
KIKK 171955Z AUTO 23011G16KT 10SM CLR 21/04 A3019 RMK AO2 T02090041
KIKK 171935Z AUTO 24013G17KT 10SM CLR 21/04 A3019 RMK AO2 T02110044
KIKK 171915Z AUTO 23013G22KT 10SM CLR 21/04 A3020 RMK AO2 T02080037
KIKK 171855Z AUTO 22014G20KT 10SM CLR 21/04 A3021 RMK AO2 T02060041
KIKK 171835Z AUTO 24014G17KT 10SM CLR 21/05 A3022 RMK AO2 T02060049
KIKK 171815Z AUTO 21015G22KT 10SM CLR 20/04 A3022 RMK AO2 T02010043
KIKK 171755Z AUTO 22015G21KT 10SM CLR 20/05 A3023 RMK AO2 T01980045 10198 20077
KIKK 171735Z AUTO 22016G20KT 10SM CLR 20/05 A3024 RMK AO2 T01960045
KIKK 171715Z AUTO 22014G19KT 10SM CLR 19/05 A3025 RMK AO2 T01910050
KIKK 171655Z AUTO 24018G23KT 10SM CLR 19/05 A3026 RMK AO2 T01880045
KIKK 171635Z AUTO 22017G21KT 10SM CLR 18/05 A3026 RMK AO2 T01800045
KIKK 171615Z AUTO 23016G21KT 10SM CLR 18/04 A3026 RMK AO2 T01780044
KIKK 171555Z AUTO 22014G19KT 10SM CLR 18/05 A3026 RMK AO2 T01750049
KIKK 171535Z AUTO 23012KT 10SM CLR 17/05 A3027 RMK AO2 T01650051
KIKK 171515Z AUTO 22010G15KT 10SM CLR 16/05 A3027 RMK AO2 T01560052
KIKK 171455Z AUTO 22013G18KT 10SM CLR 14/05 A3027 RMK AO2 T01430047
KIKK 171435Z AUTO 22010KT 10SM CLR 13/05 A3028 RMK AO2 T01340047
KIKK 171415Z AUTO 22008KT 10SM CLR 12/05 A3028 RMK AO2 T01210046
KIKK 171355Z AUTO 22009KT 10SM CLR 11/04 A3028 RMK AO2 T01100042
KIKK 171335Z AUTO 22008KT 10SM CLR 10/04 A3028 RMK AO2 T01000042
KIKK 171315Z AUTO 21007KT 10SM CLR 09/04 A3028 RMK AO2 T00880039
KIKK 171255Z AUTO 22006KT 10SM CLR 08/04 A3028 RMK AO2 T00800036
KIKK 171235Z AUTO 21007KT 10SM CLR 08/04 A3028 RMK AO2 T00780035
KIKK 171215Z AUTO 22007KT 10SM CLR 08/03 A3027 RMK AO2 T00780033
KIKK 171155Z AUTO 24008KT 220V340 10SM CLR 08/03 A3027 RMK AO2 T00760032 10079 20055
KIKK 171135Z AUTO 21006KT 10SM CLR 07/03 A3027 RMK AO2 T00700032
KIKK 171115Z AUTO 20006KT 10SM CLR 07/03 A3027 RMK AO2 T00670033
KIKK 171055Z AUTO 20006KT 10SM CLR 06/03 A3027 RMK AO2 T00570032
KIKK 171035Z AUTO 20003KT 10SM CLR 07/03 A3027 RMK AO2 T00660033
KIKK 171015Z AUTO 21007KT 10SM CLR 07/03 A3027 RMK AO2 T00680033
KIKK 170955Z AUTO 21007KT 10SM CLR 07/03 A3027 RMK AO2 T00700033
KIKK 170935Z AUTO 21006KT 10SM CLR 06/03 A3026 RMK AO2 T00580031
KIKK 170915Z AUTO 20004KT 10SM CLR 06/03 A3026 RMK AO2 T00590030
KIKK 170855Z AUTO 21006KT 10SM CLR 07/03 A3026 RMK AO2 T00720031
KIKK 170835Z AUTO 22005KT 10SM CLR 07/03 A3025 RMK AO2 T00720030
KIKK 170815Z AUTO 21006KT 10SM CLR 07/03 A3025 RMK AO2 T00710029
KIKK 170755Z AUTO 22005KT 10SM CLR 08/03 A3025 RMK AO2 T00770030
KIKK 170735Z AUTO 22005KT 10SM CLR 08/03 A3025 RMK AO2 T00780030
KIKK 170715Z AUTO 22005KT 10SM CLR 08/03 A3025 RMK AO2 T00770027
KIKK 170655Z AUTO 21003KT 10SM CLR 07/03 A3026 RMK AO2 T00650029
KIKK 170635Z AUTO 22004KT 10SM CLR 08/03 A3026 RMK AO2 T00750027
KIKK 170615Z AUTO 21005KT 10SM CLR 07/03 A3025 RMK AO2 T00680026
KIKK 170555Z AUTO 21003KT 10SM CLR 07/03 A3024 RMK AO2 T00680028 10129 20067 401770036
KIKK 170535Z AUTO 21003KT 10SM CLR 07/03 A3024 RMK AO2 T00680029
KIKK 170515Z AUTO 23004KT 10SM CLR 08/03 A3025 RMK AO2 T00760029
KIKK 170455Z AUTO 21004KT 10SM CLR 08/03 A3025 RMK AO2 T00800028
KIKK 170435Z AUTO 21006KT 10SM CLR 09/03 A3025 RMK AO2 T00910027
KIKK 170415Z AUTO 21005KT 10SM CLR 09/03 A3025 RMK AO2 T00920028
KIKK 170355Z AUTO 21005KT 10SM CLR 10/03 A3025 RMK AO2 T00950030
KIKK 170335Z AUTO 21004KT 10SM CLR 10/03 A3026 RMK AO2 T00980030
KIKK 170315Z AUTO 21004KT 10SM CLR 10/03 A3026 RMK AO2 T01030030
KIKK 170255Z AUTO 23004KT 10SM CLR 11/03 A3026 RMK AO2 T01090028
KIKK 170235Z AUTO 22005KT 10SM CLR 11/03 A3026 RMK AO2 T01140027
KIKK 170215Z AUTO 22006KT 10SM CLR 11/03 A3026 RMK AO2 T01130029
KIKK 170155Z AUTO 23005KT 10SM CLR 12/03 A3026 RMK AO2 T01170030
KIKK 170135Z AUTO 23005KT 10SM CLR 12/03 A3025 RMK AO2 T01200028
KIKK 170115Z AUTO 22005KT 10SM CLR 12/03 A3025 RMK AO2 T01200027
KIKK 170055Z AUTO 23005KT 10SM CLR 11/03 A3026 RMK AO2 T01090031
KIKK 170035Z AUTO 22004KT 10SM CLR 11/03 A3026 RMK AO2 T01080033
KIKK 170015Z AUTO 21003KT 10SM CLR 13/03 A3025 RMK AO2 T01260025
KIKK 162355Z AUTO 22004KT 10SM CLR 13/02 A3025 RMK AO2 T01290023 10177 20128
KIKK 162335Z AUTO 23003KT 10SM CLR 14/03 A3025 RMK AO2 T01350027
KIKK 162315Z AUTO 24005KT 10SM CLR 14/03 A3025 RMK AO2 T01410027
KIKK 162255Z AUTO 25005KT 10SM CLR 15/03 A3025 RMK AO2 T01460027
KIKK 162235Z AUTO 26008KT 10SM CLR 16/03 A3025 RMK AO2 T01560026
KIKK 162215Z AUTO 26009KT 10SM CLR 17/02 A3025 RMK AO2 T01660019
KIKK 162155Z AUTO 27008KT 10SM CLR 17/02 A3025 RMK AO2 T01700020
KIKK 162135Z AUTO 25012KT 10SM CLR 17/01 A3026 RMK AO2 T01730013
KIKK 162115Z AUTO 26010KT 10SM CLR 18/02 A3027 RMK AO2 T01750016
KIKK 162055Z AUTO 27012G18KT 10SM CLR 18/02 A3027 RMK AO2 T01770016
KIKK 162030Z AUTO 25010G18KT 10SM CLR 18/02 A3027 RMK AO2 T01760017
KIKK 162015Z AUTO 24013G17KT 10SM CLR 18/02 A3027 RMK AO2 T01760024
KIKK 161955Z AUTO 27003KT 10SM SCT060 17/02 A3027 RMK AO2 T01720022
KIKK 161935Z AUTO 25009G14KT 10SM SCT060 18/03 A3028 RMK AO2 T01760025